createdAt,value
2022-10-17T00:04:37.172Z,10
2022-10-17T00:09:37.238Z,10
2022-10-17T00:14:37.142Z,10
2022-10-17T00:19:53.947Z,10.8
2022-10-17T00:24:37.630Z,11.6
2022-10-17T00:29:38.298Z,11.6
2022-10-17T00:34:37.408Z,11.6
2022-10-17T00:39:37.536Z,11.6
2022-10-17T00:44:37.316Z,10.6
2022-10-17T00:49:37.176Z,10.6
2022-10-17T00:54:37.194Z,10
2022-10-17T00:59:37.174Z,9.7
2022-10-17T01:04:37.177Z,9.7
2022-10-17T01:09:37.173Z,10
2022-10-17T01:14:37.201Z,11.8
2022-10-17T01:19:37.171Z,12.8
2022-10-17T01:24:37.189Z,12.8
2022-10-17T01:29:37.171Z,14.2
2022-10-17T01:34:37.155Z,14.8
2022-10-17T01:39:41.681Z,15.6
2022-10-17T01:44:37.171Z,16.1
2022-10-17T01:49:37.169Z,17
2022-10-17T01:54:37.158Z,17.2
2022-10-17T01:59:37.154Z,17.2
2022-10-17T02:04:37.187Z,17
2022-10-17T02:09:37.148Z,17
2022-10-17T02:14:37.140Z,16.7
2022-10-17T02:19:37.214Z,13.8
2022-10-17T02:24:37.274Z,13.8
2022-10-17T02:29:37.370Z,13.3
2022-10-17T02:34:37.222Z,12.9
2022-10-17T02:39:37.169Z,10.6
2022-10-17T02:44:37.160Z,12.9
2022-10-17T02:49:37.155Z,12.2
2022-10-17T02:54:37.208Z,12.9
2022-10-17T02:59:37.178Z,12.9
2022-10-17T03:04:37.184Z,12.2
2022-10-17T03:09:37.311Z,12.2
2022-10-17T03:14:37.236Z,12.2
2022-10-17T03:19:37.260Z,10.9
2022-10-17T03:24:37.172Z,10.9
2022-10-17T03:29:37.235Z,10.9
2022-10-17T03:34:37.385Z,10.9
2022-10-17T03:39:37.168Z,11.1
2022-10-17T03:44:37.188Z,11.1
2022-10-17T03:49:37.161Z,11.1
2022-10-17T03:54:37.223Z,11.1
2022-10-17T03:59:37.282Z,11.1
2022-10-17T04:04:37.149Z,11.1
2022-10-17T04:09:37.210Z,11.1
2022-10-17T04:14:37.202Z,12
2022-10-17T04:19:37.179Z,12.6
2022-10-17T04:24:37.240Z,12.9
2022-10-17T04:29:37.223Z,13.5
2022-10-17T04:34:37.270Z,13.5
2022-10-17T04:39:37.199Z,14.8
2022-10-17T04:44:37.209Z,13.5
2022-10-17T04:49:37.241Z,13.5
2022-10-17T04:54:37.206Z,13.5
2022-10-17T04:59:37.230Z,14.7
2022-10-17T05:04:37.192Z,14.7
2022-10-17T05:09:37.221Z,14.8
2022-10-17T05:14:37.217Z,14.7
2022-10-17T05:19:37.284Z,14.7
2022-10-17T05:24:37.255Z,14.7
2022-10-17T05:29:37.297Z,13.1
2022-10-17T05:34:37.236Z,12.2
2022-10-17T05:39:37.236Z,12.2
2022-10-17T05:44:37.230Z,12.2
2022-10-17T05:49:46.217Z,12.2
2022-10-17T05:54:37.193Z,12.2
2022-10-17T05:59:37.236Z,12.2
2022-10-17T06:04:37.218Z,12.4
2022-10-17T06:09:37.233Z,13.4
2022-10-17T06:14:37.257Z,12.9
2022-10-17T06:19:37.194Z,12.6
2022-10-17T06:24:37.191Z,12.6
2022-10-17T06:29:37.340Z,12.9
2022-10-17T06:34:37.163Z,13.4
2022-10-17T06:39:37.346Z,13.4
2022-10-17T06:44:37.258Z,13.4
2022-10-17T06:49:37.246Z,15.2
2022-10-17T06:54:37.214Z,19.5
2022-10-17T06:59:37.240Z,20.4
2022-10-17T07:04:37.253Z,22.7
2022-10-17T07:09:37.230Z,22.7
2022-10-17T07:14:37.257Z,22.7
2022-10-17T07:19:37.210Z,21.8
2022-10-17T07:24:37.241Z,20.7
2022-10-17T07:29:37.199Z,21.8
2022-10-17T07:34:37.230Z,21.8
2022-10-17T07:39:37.253Z,20.7
2022-10-17T07:44:37.244Z,21.8
2022-10-17T07:49:37.265Z,21.8
2022-10-17T07:54:37.281Z,23.6
2022-10-17T07:59:37.354Z,26.3
2022-10-17T08:04:37.247Z,26.3
2022-10-17T08:09:37.242Z,26.3
2022-10-17T08:14:37.291Z,26.3
2022-10-17T08:19:37.311Z,26.3
2022-10-17T08:24:37.272Z,23
2022-10-17T08:29:37.263Z,23
2022-10-17T08:34:37.310Z,21.1
2022-10-17T08:39:37.272Z,20.4
2022-10-17T08:44:37.250Z,20.3
2022-10-17T08:49:37.251Z,18.2
2022-10-17T09:04:37.439Z,8.3
2022-10-17T09:09:37.251Z,9
2022-10-17T09:14:37.252Z,9
2022-10-17T09:19:37.252Z,8.65
2022-10-17T09:24:37.260Z,8.6
2022-10-17T09:29:43.668Z,8.45
2022-10-17T09:34:37.308Z,8.6
2022-10-17T09:39:37.215Z,8.6
2022-10-17T09:44:37.280Z,7.3
2022-10-17T09:49:37.252Z,7.3
2022-10-17T09:54:37.244Z,8.6
2022-10-17T09:59:37.230Z,9.9
2022-10-17T10:04:59.816Z,9.9
2022-10-17T10:09:40.436Z,9.7
2022-10-17T10:14:37.311Z,9.8
2022-10-17T10:19:37.246Z,9.9
2022-10-17T10:24:37.334Z,9.8
2022-10-17T10:29:37.299Z,9.8
2022-10-17T10:34:37.300Z,9.7
2022-10-17T10:39:37.252Z,9.8
2022-10-17T10:44:37.264Z,9.8
2022-10-17T10:49:37.281Z,10.7
2022-10-17T10:59:37.308Z,8.6
2022-10-17T11:04:37.522Z,8.3
2022-10-17T11:09:37.300Z,8.3
2022-10-17T11:14:39.513Z,8.3
2022-10-17T11:19:37.286Z,8.3
2022-10-17T11:24:37.247Z,8.3
2022-10-17T11:29:37.384Z,8.6
2022-10-17T11:34:37.283Z,8.6
2022-10-17T11:39:37.294Z,8.6
2022-10-17T11:44:37.380Z,8.6
2022-10-17T11:49:41.842Z,8.6
2022-10-17T11:54:37.338Z,8.6
2022-10-17T11:59:37.326Z,8.2
2022-10-17T12:04:37.364Z,7.9
2022-10-17T12:09:37.286Z,8.2
2022-10-17T12:14:37.274Z,7.9
2022-10-17T12:19:37.314Z,7.5
2022-10-17T12:24:37.290Z,7.5
2022-10-17T12:29:37.370Z,7.5
2022-10-17T12:34:37.360Z,7.5
2022-10-17T12:39:37.297Z,7.6
2022-10-17T12:44:37.340Z,7.6
2022-10-17T12:49:37.324Z,7.6
2022-10-17T12:54:46.937Z,7.6
2022-10-17T12:59:37.326Z,7.6
2022-10-17T13:04:37.309Z,6.5
2022-10-17T13:09:37.319Z,6.5
2022-10-17T13:14:37.350Z,6.5
2022-10-17T13:24:37.301Z,6.3
2022-10-17T13:29:37.329Z,7.8
2022-10-17T13:34:37.356Z,7.8
2022-10-17T13:39:52.699Z,7.8
2022-10-17T13:44:43.301Z,7.8
2022-10-17T13:49:37.308Z,7.8
2022-10-17T13:54:37.321Z,7.3
2022-10-17T13:59:37.409Z,7.3
2022-10-17T14:05:04.950Z,7.1
2022-10-17T14:09:37.327Z,7.3
2022-10-17T14:14:58.262Z,7.1
2022-10-17T14:19:37.533Z,6.8
2022-10-17T14:24:37.367Z,6.8
2022-10-17T14:29:37.440Z,6.8
2022-10-17T14:34:37.311Z,6.8
2022-10-17T14:39:37.310Z,7.8
2022-10-17T14:44:37.461Z,7.8
2022-10-17T14:49:37.363Z,8.2
2022-10-17T14:54:37.441Z,8.3
2022-10-17T14:59:53.652Z,9.1
2022-10-17T15:04:37.365Z,9.1
2022-10-17T15:09:37.379Z,8.9
2022-10-17T15:14:37.441Z,8.9
2022-10-17T15:19:37.483Z,8.9
2022-10-17T15:24:37.354Z,8.7
2022-10-17T15:29:37.390Z,7.4
2022-10-17T15:34:37.514Z,7.4
2022-10-17T15:39:37.413Z,7.4
2022-10-17T15:44:37.354Z,7.4
2022-10-17T15:49:37.392Z,7.1
2022-10-17T15:54:37.384Z,7.1
2022-10-17T15:59:37.401Z,7.4
2022-10-17T16:04:37.367Z,9.6
2022-10-17T16:09:37.387Z,14.6
2022-10-17T16:14:37.527Z,14.6
2022-10-17T16:19:37.378Z,14.6
2022-10-17T16:24:37.399Z,14.6
2022-10-17T16:29:37.368Z,8.9
2022-10-17T16:34:37.384Z,8.2
2022-10-17T16:39:37.417Z,8.2
2022-10-17T16:44:37.365Z,8.2
2022-10-17T16:49:41.637Z,8.9
2022-10-17T16:54:37.369Z,9.9
2022-10-17T16:59:37.377Z,11.2
2022-10-17T17:04:37.481Z,11.2
2022-10-17T17:09:37.413Z,11.2
2022-10-17T17:14:37.510Z,9.9
2022-10-17T17:19:37.458Z,9.9
2022-10-17T17:24:37.404Z,9.9
2022-10-17T17:29:37.374Z,9.4
2022-10-17T17:34:37.381Z,9.4
2022-10-17T17:39:37.450Z,9.9
2022-10-17T17:44:37.451Z,10.5
2022-10-17T17:49:37.424Z,10.5
2022-10-17T17:54:40.921Z,10.4
2022-10-17T17:59:37.459Z,10.5
2022-10-17T18:04:37.455Z,10.5
2022-10-17T18:09:37.513Z,10.4
2022-10-17T18:14:37.430Z,10.4
2022-10-17T18:19:37.518Z,10.4
2022-10-17T18:24:37.399Z,10.5
2022-10-17T18:29:37.494Z,10.7
2022-10-17T18:34:37.408Z,11.6
2022-10-17T18:39:37.463Z,13.9
2022-10-17T18:44:37.517Z,13.9
2022-10-17T18:49:37.469Z,13.9
2022-10-17T18:54:37.401Z,13.9
2022-10-17T18:59:37.391Z,18.2
2022-10-17T19:04:37.536Z,13.6
2022-10-17T19:09:37.504Z,13.6
2022-10-17T19:14:37.459Z,13.6
2022-10-17T19:19:37.590Z,14.7
2022-10-17T19:24:37.462Z,16.2
2022-10-17T19:29:37.391Z,16.4
2022-10-17T19:34:37.422Z,16.2
2022-10-17T19:39:37.491Z,16.2
2022-10-17T19:44:37.424Z,14.7
2022-10-17T19:49:37.470Z,16.2
2022-10-17T19:54:37.460Z,13.3
2022-10-17T19:59:37.444Z,13.3
2022-10-17T20:04:45.396Z,13.3
2022-10-17T20:09:37.413Z,16.4
2022-10-17T20:14:41.195Z,17.1
2022-10-17T20:19:37.373Z,25.3
2022-10-17T20:24:37.429Z,25.3
2022-10-17T20:29:37.401Z,25.3
2022-10-17T20:34:37.410Z,25.3
2022-10-17T20:39:37.476Z,21
2022-10-17T20:44:37.501Z,19.2
2022-10-17T20:49:37.414Z,17.9
2022-10-17T20:54:37.412Z,16
2022-10-17T20:59:37.410Z,14.9
2022-10-17T21:04:46.156Z,14.3
2022-10-17T21:09:37.419Z,14.1
2022-10-17T21:14:37.414Z,13.9
2022-10-17T21:19:37.433Z,13.9
2022-10-17T21:24:37.406Z,14.1
2022-10-17T21:29:37.424Z,14.1
2022-10-17T21:34:37.463Z,14.1
2022-10-17T21:39:37.468Z,15.6
2022-10-17T21:44:37.613Z,15.6
2022-10-17T21:49:37.417Z,16.6
2022-10-17T21:54:37.452Z,15.6
2022-10-17T21:59:37.459Z,15.4
2022-10-17T22:04:37.486Z,16.5
2022-10-17T22:09:37.437Z,15.4
2022-10-17T22:14:37.514Z,15.4
2022-10-17T22:19:37.450Z,16.4
2022-10-17T22:24:37.410Z,16.4
2022-10-17T22:29:37.552Z,16.4
2022-10-17T22:34:37.510Z,16.5
2022-10-17T22:39:37.525Z,16.4
2022-10-17T22:44:37.458Z,16.4
2022-10-17T22:49:37.447Z,17.7
2022-10-17T22:54:37.468Z,15.5
2022-10-17T22:59:37.468Z,14.9
2022-10-17T23:04:37.456Z,15.5
2022-10-17T23:09:37.417Z,15
2022-10-17T23:14:37.471Z,15.5
2022-10-17T23:19:37.480Z,16.4
2022-10-17T23:24:37.459Z,16.4
2022-10-17T23:29:37.482Z,16.7
2022-10-17T23:34:37.438Z,16.8
2022-10-17T23:39:37.414Z,18.7
2022-10-17T23:44:37.459Z,18.9
2022-10-17T23:49:37.496Z,19.1
2022-10-17T23:54:37.585Z,19.3
2022-10-17T23:59:40.786Z,20.1
